Terminal Aerodrome Forecast
Issued by NWS

Home | Current Version | Previous Version | Graphics & Text | Print | Product List | Glossary On
Versions: 1 2 3 4 5 6 7 8 9 10 11 12 13 14 15 16 17
000
FTUS43 KPAH 201700
TAFCGI
TAF
KCGI 201738Z 2018/2118 24009KT P6SM SCT070
     FM202000 26008KT P6SM BKN040
     FM210100 34003KT P6SM SKC
     FM210700 36002KT 4SM BR MIFG SKC
     FM211400 36008KT P6SM SCT050=

USA.gov is the U.S. government's official web portal to all federal, state and local government web resources and services.